Highlands, New Jersey
Current Conditions -  °F | °C
As of 8:35 AM on Thursday 30 Oct 2014 (Local Time) from KBLM Reporting Station
Overcast Overcast  
Wind Chill: 40°   Ceiling: 200
Heat Index: 45°   Visibility: 1.7mi
Dew Point: 39°   Wind: 8mph
Humidity: 81%   Direction: 290°WNW
Pressure: 30"   Gusts: NA
Location:  40.4°N, 73.99°W
Report Text: KBLM 301235Z AUTO 29007KT 1 3/4SM OVC002 07/04 A3000 RMK AO1
Loading
Personal Weather Stations






























Interactive Weather Map
Tropical Storm Tracking
New forecast layout! Learn more

10-Day Weather Forecast

Advertisements
Track Severe Weather on mobile